sensor_id;sensor_type;location;lat;lon;timestamp;P1;durP1;ratioP1;P2;durP2;ratioP2
50393;SDS011;36308;46.312;25.288;2022-07-11T00:02:07;2.33;;;2.10;;
50393;SDS011;36308;46.312;25.288;2022-07-11T00:04:33;3.85;;;2.33;;
50393;SDS011;36308;46.312;25.288;2022-07-11T00:06:59;3.08;;;1.95;;
50393;SDS011;36308;46.312;25.288;2022-07-11T00:09:25;3.55;;;1.85;;
50393;SDS011;36308;46.312;25.288;2022-07-11T00:11:51;2.80;;;1.98;;
50393;SDS011;36308;46.312;25.288;2022-07-11T00:14:16;2.65;;;1.73;;
50393;SDS011;36308;46.312;25.288;2022-07-11T00:16:43;2.60;;;1.55;;
50393;SDS011;36308;46.312;25.288;2022-07-11T00:19:08;3.25;;;1.70;;
50393;SDS011;36308;46.312;25.288;2022-07-11T00:21:34;4.53;;;1.70;;
50393;SDS011;36308;46.312;25.288;2022-07-11T00:24:01;5.90;;;1.65;;
50393;SDS011;36308;46.312;25.288;2022-07-11T00:26:31;2.65;;;1.40;;
50393;SDS011;36308;46.312;25.288;2022-07-11T00:28:57;2.05;;;1.30;;
50393;SDS011;36308;46.312;25.288;2022-07-11T00:31:22;3.67;;;1.70;;
50393;SDS011;36308;46.312;25.288;2022-07-11T00:33:48;3.17;;;1.50;;
50393;SDS011;36308;46.312;25.288;2022-07-11T00:36:13;2.28;;;1.50;;
50393;SDS011;36308;46.312;25.288;2022-07-11T00:38:39;2.30;;;1.67;;
50393;SDS011;36308;46.312;25.288;2022-07-11T00:41:05;3.33;;;1.48;;
50393;SDS011;36308;46.312;25.288;2022-07-11T00:43:31;1.83;;;1.40;;
50393;SDS011;36308;46.312;25.288;2022-07-11T00:45:58;3.35;;;1.48;;
50393;SDS011;36308;46.312;25.288;2022-07-11T00:48:23;2.17;;;1.50;;
50393;SDS011;36308;46.312;25.288;2022-07-11T00:50:49;2.42;;;1.50;;
50393;SDS011;36308;46.312;25.288;2022-07-11T00:53:15;3.22;;;1.50;;
50393;SDS011;36308;46.312;25.288;2022-07-11T00:55:41;1.98;;;1.50;;
50393;SDS011;36308;46.312;25.288;2022-07-11T00:58:06;2.20;;;1.50;;
50393;SDS011;36308;46.312;25.288;2022-07-11T01:00:32;2.03;;;1.20;;
50393;SDS011;36308;46.312;25.288;2022-07-11T01:02:58;1.65;;;1.05;;
50393;SDS011;36308;46.312;25.288;2022-07-11T01:05:23;1.73;;;1.40;;
50393;SDS011;36308;46.312;25.288;2022-07-11T01:07:49;1.85;;;1.23;;
50393;SDS011;36308;46.312;25.288;2022-07-11T01:10:14;2.05;;;1.65;;
50393;SDS011;36308;46.312;25.288;2022-07-11T01:12:40;2.97;;;1.90;;
50393;SDS011;36308;46.312;25.288;2022-07-11T01:15:05;2.88;;;1.90;;
50393;SDS011;36308;46.312;25.288;2022-07-11T01:17:33;5.35;;;1.98;;
50393;SDS011;36308;46.312;25.288;2022-07-11T01:19:58;4.90;;;1.85;;
50393;SDS011;36308;46.312;25.288;2022-07-11T01:22:24;2.80;;;2.03;;
50393;SDS011;36308;46.312;25.288;2022-07-11T01:24:53;3.40;;;1.85;;
50393;SDS011;36308;46.312;25.288;2022-07-11T01:27:20;3.63;;;1.90;;
50393;SDS011;36308;46.312;25.288;2022-07-11T01:29:48;6.05;;;1.63;;
50393;SDS011;36308;46.312;25.288;2022-07-11T01:32:13;3.75;;;1.90;;
50393;SDS011;36308;46.312;25.288;2022-07-11T01:34:42;2.25;;;1.73;;
50393;SDS011;36308;46.312;25.288;2022-07-11T01:37:07;1.92;;;1.42;;
50393;SDS011;36308;46.312;25.288;2022-07-11T01:39:32;3.22;;;1.83;;
50393;SDS011;36308;46.312;25.288;2022-07-11T01:42:08;1.80;;;1.38;;
50393;SDS011;36308;46.312;25.288;2022-07-11T01:44:33;3.17;;;1.52;;
50393;SDS011;36308;46.312;25.288;2022-07-11T01:46:59;2.35;;;1.23;;
50393;SDS011;36308;46.312;25.288;2022-07-11T01:49:24;1.65;;;1.40;;
50393;SDS011;36308;46.312;25.288;2022-07-11T01:51:54;1.73;;;1.50;;
50393;SDS011;36308;46.312;25.288;2022-07-11T01:54:23;3.17;;;1.73;;
50393;SDS011;36308;46.312;25.288;2022-07-11T01:56:48;2.17;;;1.50;;
50393;SDS011;36308;46.312;25.288;2022-07-11T01:59:13;2.67;;;1.38;;
50393;SDS011;36308;46.312;25.288;2022-07-11T02:01:39;3.00;;;1.60;;
50393;SDS011;36308;46.312;25.288;2022-07-11T02:04:05;2.00;;;1.50;;
50393;SDS011;36308;46.312;25.288;2022-07-11T02:06:31;2.42;;;1.40;;
50393;SDS011;36308;46.312;25.288;2022-07-11T02:08:57;3.15;;;1.48;;
50393;SDS011;36308;46.312;25.288;2022-07-11T02:11:39;2.13;;;1.58;;
50393;SDS011;36308;46.312;25.288;2022-07-11T02:14:05;4.03;;;1.40;;
50393;SDS011;36308;46.312;25.288;2022-07-11T02:16:39;2.22;;;1.42;;
50393;SDS011;36308;46.312;25.288;2022-07-11T02:19:05;1.88;;;1.23;;
50393;SDS011;36308;46.312;25.288;2022-07-11T02:21:31;2.35;;;1.23;;
50393;SDS011;36308;46.312;25.288;2022-07-11T02:23:57;3.00;;;1.30;;
50393;SDS011;36308;46.312;25.288;2022-07-11T02:26:23;2.72;;;1.40;;
50393;SDS011;36308;46.312;25.288;2022-07-11T02:28:48;3.03;;;1.50;;
50393;SDS011;36308;46.312;25.288;2022-07-11T02:31:14;2.45;;;1.40;;
50393;SDS011;36308;46.312;25.288;2022-07-11T02:33:39;2.40;;;1.30;;
50393;SDS011;36308;46.312;25.288;2022-07-11T02:36:05;1.83;;;1.50;;
50393;SDS011;36308;46.312;25.288;2022-07-11T02:38:32;4.50;;;1.48;;
50393;SDS011;36308;46.312;25.288;2022-07-11T02:40:57;3.75;;;1.80;;
50393;SDS011;36308;46.312;25.288;2022-07-11T02:45:53;2.22;;;1.70;;
50393;SDS011;36308;46.312;25.288;2022-07-11T02:48:20;4.65;;;1.90;;
50393;SDS011;36308;46.312;25.288;2022-07-11T02:50:45;2.45;;;1.20;;
50393;SDS011;36308;46.312;25.288;2022-07-11T02:53:11;1.80;;;1.30;;
50393;SDS011;36308;46.312;25.288;2022-07-11T02:55:37;5.80;;;1.70;;
50393;SDS011;36308;46.312;25.288;2022-07-11T02:58:03;2.78;;;1.45;;
50393;SDS011;36308;46.312;25.288;2022-07-11T03:00:28;1.67;;;1.33;;
50393;SDS011;36308;46.312;25.288;2022-07-11T03:02:54;3.78;;;1.40;;
50393;SDS011;36308;46.312;25.288;2022-07-11T03:05:20;2.78;;;1.20;;
50393;SDS011;36308;46.312;25.288;2022-07-11T03:07:45;2.08;;;1.52;;
50393;SDS011;36308;46.312;25.288;2022-07-11T03:10:11;1.70;;;1.30;;
50393;SDS011;36308;46.312;25.288;2022-07-11T03:12:36;2.88;;;1.85;;
50393;SDS011;36308;46.312;25.288;2022-07-11T03:15:02;4.45;;;1.80;;
50393;SDS011;36308;46.312;25.288;2022-07-11T03:17:27;2.55;;;1.60;;
50393;SDS011;36308;46.312;25.288;2022-07-11T03:19:54;3.20;;;1.35;;
50393;SDS011;36308;46.312;25.288;2022-07-11T03:22:19;6.28;;;2.10;;
50393;SDS011;36308;46.312;25.288;2022-07-11T03:24:45;5.65;;;1.92;;
50393;SDS011;36308;46.312;25.288;2022-07-11T03:27:10;4.47;;;1.90;;
50393;SDS011;36308;46.312;25.288;2022-07-11T03:29:36;5.93;;;2.10;;
50393;SDS011;36308;46.312;25.288;2022-07-11T03:32:02;3.35;;;1.30;;
50393;SDS011;36308;46.312;25.288;2022-07-11T03:37:28;3.78;;;1.40;;
50393;SDS011;36308;46.312;25.288;2022-07-11T03:39:53;1.85;;;1.63;;
50393;SDS011;36308;46.312;25.288;2022-07-11T03:42:19;2.83;;;1.48;;
50393;SDS011;36308;46.312;25.288;2022-07-11T03:44:44;2.28;;;1.65;;
50393;SDS011;36308;46.312;25.288;2022-07-11T03:47:18;6.28;;;1.60;;
50393;SDS011;36308;46.312;25.288;2022-07-11T03:49:45;3.35;;;1.55;;
50393;SDS011;36308;46.312;25.288;2022-07-11T03:52:11;8.32;;;1.75;;
50393;SDS011;36308;46.312;25.288;2022-07-11T03:54:37;2.08;;;1.83;;
50393;SDS011;36308;46.312;25.288;2022-07-11T03:57:02;2.13;;;1.50;;
50393;SDS011;36308;46.312;25.288;2022-07-11T03:59:28;2.15;;;1.75;;
50393;SDS011;36308;46.312;25.288;2022-07-11T04:01:53;4.88;;;2.20;;
50393;SDS011;36308;46.312;25.288;2022-07-11T04:04:19;3.70;;;1.67;;
50393;SDS011;36308;46.312;25.288;2022-07-11T04:06:44;3.38;;;1.75;;
50393;SDS011;36308;46.312;25.288;2022-07-11T04:09:10;3.53;;;1.88;;
50393;SDS011;36308;46.312;25.288;2022-07-11T04:11:36;3.72;;;2.30;;
50393;SDS011;36308;46.312;25.288;2022-07-11T04:16:55;3.70;;;3.17;;
50393;SDS011;36308;46.312;25.288;2022-07-11T04:19:20;6.15;;;4.40;;
50393;SDS011;36308;46.312;25.288;2022-07-11T04:21:46;5.95;;;3.97;;
50393;SDS011;36308;46.312;25.288;2022-07-11T04:24:11;5.30;;;3.42;;
50393;SDS011;36308;46.312;25.288;2022-07-11T04:26:37;5.82;;;3.30;;
50393;SDS011;36308;46.312;25.288;2022-07-11T04:29:02;8.20;;;2.80;;
50393;SDS011;36308;46.312;25.288;2022-07-11T04:31:27;6.00;;;3.50;;
50393;SDS011;36308;46.312;25.288;2022-07-11T04:33:53;5.70;;;3.45;;
50393;SDS011;36308;46.312;25.288;2022-07-11T04:36:18;4.70;;;3.03;;
50393;SDS011;36308;46.312;25.288;2022-07-11T04:38:44;8.30;;;3.28;;
50393;SDS011;36308;46.312;25.288;2022-07-11T04:41:09;4.20;;;2.75;;
50393;SDS011;36308;46.312;25.288;2022-07-11T04:43:50;5.43;;;2.83;;
50393;SDS011;36308;46.312;25.288;2022-07-11T04:46:15;4.22;;;2.63;;
50393;SDS011;36308;46.312;25.288;2022-07-11T04:48:41;5.88;;;3.20;;
50393;SDS011;36308;46.312;25.288;2022-07-11T04:51:06;6.65;;;2.90;;
50393;SDS011;36308;46.312;25.288;2022-07-11T04:53:32;7.68;;;3.45;;
50393;SDS011;36308;46.312;25.288;2022-07-11T04:55:58;4.88;;;2.60;;
50393;SDS011;36308;46.312;25.288;2022-07-11T04:58:24;3.70;;;2.90;;
50393;SDS011;36308;46.312;25.288;2022-07-11T05:00:50;6.05;;;5.05;;
50393;SDS011;36308;46.312;25.288;2022-07-11T05:03:16;6.78;;;3.63;;
50393;SDS011;36308;46.312;25.288;2022-07-11T05:05:41;7.13;;;3.75;;
50393;SDS011;36308;46.312;25.288;2022-07-11T05:08:07;9.48;;;4.05;;
50393;SDS011;36308;46.312;25.288;2022-07-11T05:10:32;7.50;;;4.10;;
50393;SDS011;36308;46.312;25.288;2022-07-11T05:15:45;9.45;;;4.05;;
50393;SDS011;36308;46.312;25.288;2022-07-11T05:18:10;10.30;;;4.13;;
50393;SDS011;36308;46.312;25.288;2022-07-11T05:20:36;6.47;;;3.90;;
50393;SDS011;36308;46.312;25.288;2022-07-11T05:23:02;6.30;;;3.80;;
50393;SDS011;36308;46.312;25.288;2022-07-11T05:25:28;7.35;;;4.07;;
50393;SDS011;36308;46.312;25.288;2022-07-11T05:27:53;7.28;;;3.55;;
50393;SDS011;36308;46.312;25.288;2022-07-11T05:30:19;6.32;;;3.90;;
50393;SDS011;36308;46.312;25.288;2022-07-11T05:32:44;5.90;;;3.75;;
50393;SDS011;36308;46.312;25.288;2022-07-11T05:35:10;6.50;;;3.90;;
50393;SDS011;36308;46.312;25.288;2022-07-11T05:37:35;8.30;;;3.63;;
50393;SDS011;36308;46.312;25.288;2022-07-11T05:40:01;6.28;;;3.78;;
50393;SDS011;36308;46.312;25.288;2022-07-11T05:42:27;5.47;;;3.30;;
50393;SDS011;36308;46.312;25.288;2022-07-11T05:44:53;9.13;;;5.85;;
50393;SDS011;36308;46.312;25.288;2022-07-11T05:49:58;4.13;;;2.92;;
50393;SDS011;36308;46.312;25.288;2022-07-11T05:52:23;5.97;;;3.63;;
50393;SDS011;36308;46.312;25.288;2022-07-11T05:54:49;5.18;;;3.08;;
50393;SDS011;36308;46.312;25.288;2022-07-11T05:57:14;5.05;;;2.70;;
50393;SDS011;36308;46.312;25.288;2022-07-11T05:59:39;7.28;;;4.97;;
50393;SDS011;36308;46.312;25.288;2022-07-11T06:02:05;30.23;;;4.90;;
50393;SDS011;36308;46.312;25.288;2022-07-11T06:04:32;5.82;;;2.60;;
50393;SDS011;36308;46.312;25.288;2022-07-11T06:06:59;9.77;;;3.08;;
50393;SDS011;36308;46.312;25.288;2022-07-11T06:09:34;3.25;;;2.53;;
50393;SDS011;36308;46.312;25.288;2022-07-11T06:11:59;4.75;;;2.78;;
50393;SDS011;36308;46.312;25.288;2022-07-11T06:14:25;8.52;;;3.05;;
50393;SDS011;36308;46.312;25.288;2022-07-11T06:19:37;3.88;;;2.47;;
50393;SDS011;36308;46.312;25.288;2022-07-11T06:22:16;4.78;;;2.60;;
50393;SDS011;36308;46.312;25.288;2022-07-11T06:24:42;5.00;;;2.70;;
50393;SDS011;36308;46.312;25.288;2022-07-11T06:27:07;13.15;;;3.65;;
50393;SDS011;36308;46.312;25.288;2022-07-11T06:29:33;2.55;;;2.05;;
50393;SDS011;36308;46.312;25.288;2022-07-11T06:31:58;3.47;;;2.35;;
50393;SDS011;36308;46.312;25.288;2022-07-11T06:34:24;2.70;;;2.13;;
50393;SDS011;36308;46.312;25.288;2022-07-11T06:36:49;3.08;;;2.05;;
50393;SDS011;36308;46.312;25.288;2022-07-11T06:39:15;4.68;;;2.40;;
50393;SDS011;36308;46.312;25.288;2022-07-11T06:41:41;5.05;;;2.10;;
50393;SDS011;36308;46.312;25.288;2022-07-11T06:44:06;2.65;;;2.15;;
50393;SDS011;36308;46.312;25.288;2022-07-11T06:46:31;3.65;;;2.10;;
50393;SDS011;36308;46.312;25.288;2022-07-11T06:48:57;4.82;;;2.53;;
50393;SDS011;36308;46.312;25.288;2022-07-11T06:51:26;2.75;;;1.98;;
50393;SDS011;36308;46.312;25.288;2022-07-11T06:53:51;2.97;;;2.40;;
50393;SDS011;36308;46.312;25.288;2022-07-11T06:56:17;3.25;;;2.17;;
50393;SDS011;36308;46.312;25.288;2022-07-11T06:58:42;3.33;;;2.13;;
50393;SDS011;36308;46.312;25.288;2022-07-11T07:01:07;3.08;;;2.17;;
50393;SDS011;36308;46.312;25.288;2022-07-11T07:03:34;2.67;;;1.88;;
50393;SDS011;36308;46.312;25.288;2022-07-11T07:06:00;3.47;;;2.00;;
50393;SDS011;36308;46.312;25.288;2022-07-11T07:08:27;3.05;;;1.60;;
50393;SDS011;36308;46.312;25.288;2022-07-11T07:10:53;2.40;;;1.70;;
50393;SDS011;36308;46.312;25.288;2022-07-11T07:13:19;2.78;;;1.80;;
50393;SDS011;36308;46.312;25.288;2022-07-11T07:15:48;3.47;;;1.92;;
50393;SDS011;36308;46.312;25.288;2022-07-11T07:18:15;2.65;;;1.63;;
50393;SDS011;36308;46.312;25.288;2022-07-11T07:20:40;3.03;;;1.75;;
50393;SDS011;36308;46.312;25.288;2022-07-11T07:23:06;2.17;;;1.65;;
50393;SDS011;36308;46.312;25.288;2022-07-11T07:25:32;1.85;;;1.60;;
50393;SDS011;36308;46.312;25.288;2022-07-11T07:27:58;2.28;;;1.70;;
50393;SDS011;36308;46.312;25.288;2022-07-11T07:30:24;1.90;;;1.70;;
50393;SDS011;36308;46.312;25.288;2022-07-11T07:32:50;2.13;;;1.60;;
50393;SDS011;36308;46.312;25.288;2022-07-11T07:35:15;2.83;;;1.70;;
50393;SDS011;36308;46.312;25.288;2022-07-11T07:37:41;1.63;;;1.25;;
50393;SDS011;36308;46.312;25.288;2022-07-11T07:40:06;2.35;;;1.75;;
50393;SDS011;36308;46.312;25.288;2022-07-11T07:42:32;3.17;;;2.00;;
50393;SDS011;36308;46.312;25.288;2022-07-11T07:44:57;2.83;;;1.92;;
50393;SDS011;36308;46.312;25.288;2022-07-11T07:47:23;4.93;;;2.30;;
50393;SDS011;36308;46.312;25.288;2022-07-11T07:49:48;3.63;;;1.95;;
50393;SDS011;36308;46.312;25.288;2022-07-11T07:52:14;4.18;;;1.80;;
50393;SDS011;36308;46.312;25.288;2022-07-11T07:54:39;3.03;;;1.80;;
50393;SDS011;36308;46.312;25.288;2022-07-11T07:57:05;1.90;;;1.70;;
50393;SDS011;36308;46.312;25.288;2022-07-11T07:59:30;2.20;;;1.52;;
50393;SDS011;36308;46.312;25.288;2022-07-11T08:01:56;1.92;;;1.52;;
50393;SDS011;36308;46.312;25.288;2022-07-11T08:04:22;2.95;;;1.48;;
50393;SDS011;36308;46.312;25.288;2022-07-11T08:07:02;2.30;;;1.58;;
50393;SDS011;36308;46.312;25.288;2022-07-11T08:09:28;1.75;;;1.20;;
50393;SDS011;36308;46.312;25.288;2022-07-11T08:11:54;2.85;;;1.40;;
50393;SDS011;36308;46.312;25.288;2022-07-11T08:14:19;2.47;;;1.50;;
50393;SDS011;36308;46.312;25.288;2022-07-11T08:16:46;5.35;;;1.80;;
50393;SDS011;36308;46.312;25.288;2022-07-11T08:19:12;2.97;;;1.50;;
50393;SDS011;36308;46.312;25.288;2022-07-11T08:21:38;3.03;;;1.38;;
50393;SDS011;36308;46.312;25.288;2022-07-11T08:24:03;2.33;;;1.40;;
50393;SDS011;36308;46.312;25.288;2022-07-11T08:26:29;4.32;;;1.60;;
50393;SDS011;36308;46.312;25.288;2022-07-11T08:28:55;2.85;;;1.63;;
50393;SDS011;36308;46.312;25.288;2022-07-11T08:31:22;2.72;;;1.40;;
50393;SDS011;36308;46.312;25.288;2022-07-11T08:33:48;2.00;;;1.33;;
50393;SDS011;36308;46.312;25.288;2022-07-11T08:36:13;2.03;;;1.10;;
50393;SDS011;36308;46.312;25.288;2022-07-11T08:38:39;1.63;;;1.10;;
50393;SDS011;36308;46.312;25.288;2022-07-11T08:41:09;3.95;;;0.90;;
50393;SDS011;36308;46.312;25.288;2022-07-11T08:43:36;3.47;;;1.10;;
50393;SDS011;36308;46.312;25.288;2022-07-11T08:46:02;3.88;;;1.20;;
50393;SDS011;36308;46.312;25.288;2022-07-11T08:48:28;2.42;;;1.10;;
50393;SDS011;36308;46.312;25.288;2022-07-11T08:50:55;1.88;;;1.20;;
50393;SDS011;36308;46.312;25.288;2022-07-11T08:53:21;2.13;;;1.42;;
50393;SDS011;36308;46.312;25.288;2022-07-11T08:55:46;1.98;;;1.40;;
50393;SDS011;36308;46.312;25.288;2022-07-11T08:58:12;1.40;;;1.30;;
50393;SDS011;36308;46.312;25.288;2022-07-11T09:00:38;1.30;;;1.20;;
50393;SDS011;36308;46.312;25.288;2022-07-11T09:03:05;3.33;;;1.35;;
50393;SDS011;36308;46.312;25.288;2022-07-11T09:05:32;2.45;;;1.20;;
50393;SDS011;36308;46.312;25.288;2022-07-11T09:07:57;2.05;;;1.15;;
50393;SDS011;36308;46.312;25.288;2022-07-11T09:10:23;1.40;;;1.08;;
50393;SDS011;36308;46.312;25.288;2022-07-11T09:13:05;1.70;;;1.30;;
50393;SDS011;36308;46.312;25.288;2022-07-11T09:15:43;2.60;;;1.20;;
50393;SDS011;36308;46.312;25.288;2022-07-11T09:18:30;1.40;;;1.10;;
50393;SDS011;36308;46.312;25.288;2022-07-11T09:23:49;2.88;;;0.98;;
50393;SDS011;36308;46.312;25.288;2022-07-11T09:26:35;2.08;;;1.10;;
50393;SDS011;36308;46.312;25.288;2022-07-11T09:29:06;2.47;;;0.90;;
50393;SDS011;36308;46.312;25.288;2022-07-11T09:31:34;1.77;;;0.90;;
50393;SDS011;36308;46.312;25.288;2022-07-11T09:34:01;2.20;;;0.90;;
50393;SDS011;36308;46.312;25.288;2022-07-11T09:39:05;1.77;;;1.02;;
50393;SDS011;36308;46.312;25.288;2022-07-11T09:41:35;2.17;;;0.75;;
50393;SDS011;36308;46.312;25.288;2022-07-11T09:44:05;3.05;;;1.00;;
50393;SDS011;36308;46.312;25.288;2022-07-11T09:46:34;3.90;;;1.35;;
50393;SDS011;36308;46.312;25.288;2022-07-11T09:49:01;1.25;;;0.90;;
50393;SDS011;36308;46.312;25.288;2022-07-11T09:51:27;2.47;;;1.02;;
50393;SDS011;36308;46.312;25.288;2022-07-11T09:53:56;2.75;;;0.80;;
50393;SDS011;36308;46.312;25.288;2022-07-11T09:56:39;1.95;;;0.90;;
50393;SDS011;36308;46.312;25.288;2022-07-11T09:59:07;2.58;;;1.00;;
50393;SDS011;36308;46.312;25.288;2022-07-11T10:01:35;1.08;;;0.98;;
50393;SDS011;36308;46.312;25.288;2022-07-11T10:04:01;1.30;;;0.77;;
50393;SDS011;36308;46.312;25.288;2022-07-11T10:06:29;2.05;;;1.00;;
50393;SDS011;36308;46.312;25.288;2022-07-11T10:08:54;1.10;;;0.70;;
50393;SDS011;36308;46.312;25.288;2022-07-11T10:11:20;6.47;;;2.95;;
50393;SDS011;36308;46.312;25.288;2022-07-11T10:13:46;4.60;;;2.70;;
50393;SDS011;36308;46.312;25.288;2022-07-11T10:16:59;2.15;;;1.48;;
50393;SDS011;36308;46.312;25.288;2022-07-11T10:19:36;3.95;;;1.10;;
50393;SDS011;36308;46.312;25.288;2022-07-11T10:22:37;2.03;;;0.90;;
50393;SDS011;36308;46.312;25.288;2022-07-11T10:25:27;1.63;;;1.02;;
50393;SDS011;36308;46.312;25.288;2022-07-11T10:28:07;3.80;;;0.90;;
50393;SDS011;36308;46.312;25.288;2022-07-11T10:30:46;2.05;;;0.77;;
50393;SDS011;36308;46.312;25.288;2022-07-11T10:33:13;3.35;;;1.20;;
50393;SDS011;36308;46.312;25.288;2022-07-11T10:35:41;3.53;;;0.95;;
50393;SDS011;36308;46.312;25.288;2022-07-11T10:38:08;4.05;;;1.05;;
50393;SDS011;36308;46.312;25.288;2022-07-11T10:43:11;1.73;;;1.17;;
50393;SDS011;36308;46.312;25.288;2022-07-11T10:48:24;1.65;;;0.93;;
50393;SDS011;36308;46.312;25.288;2022-07-11T10:51:04;2.42;;;1.20;;
50393;SDS011;36308;46.312;25.288;2022-07-11T10:53:45;1.38;;;0.77;;
50393;SDS011;36308;46.312;25.288;2022-07-11T10:59:03;2.08;;;1.05;;
50393;SDS011;36308;46.312;25.288;2022-07-11T11:01:33;3.15;;;0.93;;
50393;SDS011;36308;46.312;25.288;2022-07-11T11:07:01;2.22;;;0.93;;
50393;SDS011;36308;46.312;25.288;2022-07-11T11:09:37;1.00;;;0.80;;
50393;SDS011;36308;46.312;25.288;2022-07-11T11:12:03;1.13;;;0.70;;
50393;SDS011;36308;46.312;25.288;2022-07-11T11:14:29;2.60;;;1.13;;
50393;SDS011;36308;46.312;25.288;2022-07-11T11:16:55;3.33;;;1.85;;
50393;SDS011;36308;46.312;25.288;2022-07-11T11:20:00;2.83;;;1.77;;
50393;SDS011;36308;46.312;25.288;2022-07-11T11:22:27;8.52;;;5.60;;
50393;SDS011;36308;46.312;25.288;2022-07-11T11:24:54;2.00;;;0.93;;
50393;SDS011;36308;46.312;25.288;2022-07-11T11:27:24;2.33;;;1.75;;
50393;SDS011;36308;46.312;25.288;2022-07-11T11:29:52;2.58;;;0.95;;
50393;SDS011;36308;46.312;25.288;2022-07-11T11:32:19;3.10;;;1.55;;
50393;SDS011;36308;46.312;25.288;2022-07-11T11:34:45;1.60;;;1.10;;
50393;SDS011;36308;46.312;25.288;2022-07-11T11:37:11;8.10;;;7.38;;
50393;SDS011;36308;46.312;25.288;2022-07-11T11:39:37;1.70;;;0.80;;
50393;SDS011;36308;46.312;25.288;2022-07-11T11:42:08;1.75;;;0.80;;
50393;SDS011;36308;46.312;25.288;2022-07-11T11:44:48;1.95;;;0.60;;
50393;SDS011;36308;46.312;25.288;2022-07-11T11:47:21;1.00;;;0.60;;
50393;SDS011;36308;46.312;25.288;2022-07-11T11:49:47;0.90;;;0.40;;
50393;SDS011;36308;46.312;25.288;2022-07-11T11:52:14;2.30;;;0.90;;
50393;SDS011;36308;46.312;25.288;2022-07-11T11:54:40;1.27;;;0.65;;
50393;SDS011;36308;46.312;25.288;2022-07-11T11:57:06;1.98;;;0.68;;
50393;SDS011;36308;46.312;25.288;2022-07-11T11:59:33;2.85;;;0.75;;
50393;SDS011;36308;46.312;25.288;2022-07-11T12:01:59;4.65;;;1.33;;
50393;SDS011;36308;46.312;25.288;2022-07-11T12:04:24;3.03;;;0.90;;
50393;SDS011;36308;46.312;25.288;2022-07-11T12:06:55;3.17;;;1.15;;
50393;SDS011;36308;46.312;25.288;2022-07-11T12:09:22;2.63;;;1.05;;
50393;SDS011;36308;46.312;25.288;2022-07-11T12:12:07;4.00;;;1.02;;
50393;SDS011;36308;46.312;25.288;2022-07-11T12:14:52;5.90;;;1.15;;
50393;SDS011;36308;46.312;25.288;2022-07-11T12:17:25;16.33;;;1.95;;
50393;SDS011;36308;46.312;25.288;2022-07-11T12:19:51;3.55;;;1.67;;
50393;SDS011;36308;46.312;25.288;2022-07-11T12:22:18;3.08;;;1.98;;
50393;SDS011;36308;46.312;25.288;2022-07-11T12:24:48;8.20;;;1.42;;
50393;SDS011;36308;46.312;25.288;2022-07-11T12:27:21;3.90;;;2.03;;
50393;SDS011;36308;46.312;25.288;2022-07-11T12:29:47;4.05;;;1.55;;
50393;SDS011;36308;46.312;25.288;2022-07-11T12:32:19;5.88;;;2.90;;
50393;SDS011;36308;46.312;25.288;2022-07-11T12:34:48;2.60;;;1.00;;
50393;SDS011;36308;46.312;25.288;2022-07-11T12:39:55;1.38;;;1.00;;
50393;SDS011;36308;46.312;25.288;2022-07-11T12:42:32;4.50;;;0.60;;
50393;SDS011;36308;46.312;25.288;2022-07-11T12:45:06;1.17;;;0.77;;
50393;SDS011;36308;46.312;25.288;2022-07-11T12:47:54;0.98;;;0.47;;
50393;SDS011;36308;46.312;25.288;2022-07-11T12:50:21;1.70;;;0.70;;
50393;SDS011;36308;46.312;25.288;2022-07-11T12:52:49;0.77;;;0.50;;
50393;SDS011;36308;46.312;25.288;2022-07-11T12:55:21;6.70;;;0.90;;
50393;SDS011;36308;46.312;25.288;2022-07-11T13:00:36;1.38;;;0.73;;
50393;SDS011;36308;46.312;25.288;2022-07-11T13:03:05;0.95;;;0.60;;
50393;SDS011;36308;46.312;25.288;2022-07-11T13:05:50;3.05;;;0.80;;
50393;SDS011;36308;46.312;25.288;2022-07-11T13:08:26;1.15;;;0.50;;
50393;SDS011;36308;46.312;25.288;2022-07-11T13:11:17;1.55;;;0.80;;
50393;SDS011;36308;46.312;25.288;2022-07-11T13:13:45;0.70;;;0.52;;
50393;SDS011;36308;46.312;25.288;2022-07-11T13:16:15;2.35;;;0.60;;
50393;SDS011;36308;46.312;25.288;2022-07-11T13:18:41;1.80;;;0.68;;
50393;SDS011;36308;46.312;25.288;2022-07-11T13:21:07;1.70;;;0.70;;
50393;SDS011;36308;46.312;25.288;2022-07-11T13:23:33;1.42;;;0.57;;
50393;SDS011;36308;46.312;25.288;2022-07-11T13:25:59;1.33;;;0.70;;
50393;SDS011;36308;46.312;25.288;2022-07-11T13:28:25;0.80;;;0.45;;
50393;SDS011;36308;46.312;25.288;2022-07-11T13:30:51;1.42;;;0.57;;
50393;SDS011;36308;46.312;25.288;2022-07-11T13:33:18;0.82;;;0.50;;
50393;SDS011;36308;46.312;25.288;2022-07-11T13:35:44;3.00;;;0.50;;
50393;SDS011;36308;46.312;25.288;2022-07-11T13:38:11;3.75;;;0.80;;
50393;SDS011;36308;46.312;25.288;2022-07-11T13:40:36;1.40;;;0.60;;
50393;SDS011;36308;46.312;25.288;2022-07-11T13:43:02;3.13;;;0.68;;
50393;SDS011;36308;46.312;25.288;2022-07-11T13:45:27;1.95;;;0.70;;
50393;SDS011;36308;46.312;25.288;2022-07-11T13:47:53;1.58;;;0.60;;
50393;SDS011;36308;46.312;25.288;2022-07-11T13:50:19;1.35;;;0.60;;
50393;SDS011;36308;46.312;25.288;2022-07-11T13:52:48;0.52;;;0.40;;
50393;SDS011;36308;46.312;25.288;2022-07-11T13:55:17;2.30;;;0.88;;
50393;SDS011;36308;46.312;25.288;2022-07-11T13:57:44;1.58;;;0.45;;
50393;SDS011;36308;46.312;25.288;2022-07-11T14:02:43;1.35;;;0.75;;
50393;SDS011;36308;46.312;25.288;2022-07-11T14:05:09;3.53;;;0.70;;
50393;SDS011;36308;46.312;25.288;2022-07-11T14:07:34;2.70;;;1.00;;
50393;SDS011;36308;46.312;25.288;2022-07-11T14:10:00;0.70;;;0.47;;
50393;SDS011;36308;46.312;25.288;2022-07-11T14:12:26;1.15;;;0.60;;
50393;SDS011;36308;46.312;25.288;2022-07-11T14:14:54;1.60;;;0.75;;
50393;SDS011;36308;46.312;25.288;2022-07-11T14:17:20;1.58;;;0.45;;
50393;SDS011;36308;46.312;25.288;2022-07-11T14:19:45;2.15;;;0.68;;
50393;SDS011;36308;46.312;25.288;2022-07-11T14:22:11;0.60;;;0.50;;
50393;SDS011;36308;46.312;25.288;2022-07-11T14:24:37;0.73;;;0.50;;
50393;SDS011;36308;46.312;25.288;2022-07-11T14:27:03;2.35;;;0.80;;
50393;SDS011;36308;46.312;25.288;2022-07-11T14:29:29;3.20;;;0.55;;
50393;SDS011;36308;46.312;25.288;2022-07-11T14:31:56;2.63;;;1.50;;
50393;SDS011;36308;46.312;25.288;2022-07-11T14:34:22;0.90;;;0.50;;
50393;SDS011;36308;46.312;25.288;2022-07-11T14:36:48;2.15;;;0.47;;
50393;SDS011;36308;46.312;25.288;2022-07-11T14:39:16;1.55;;;0.60;;
50393;SDS011;36308;46.312;25.288;2022-07-11T14:41:42;2.88;;;0.50;;
50393;SDS011;36308;46.312;25.288;2022-07-11T14:44:09;1.05;;;0.50;;
50393;SDS011;36308;46.312;25.288;2022-07-11T14:46:35;2.45;;;0.70;;
50393;SDS011;36308;46.312;25.288;2022-07-11T14:49:01;6.25;;;0.60;;
50393;SDS011;36308;46.312;25.288;2022-07-11T14:51:26;0.80;;;0.60;;
50393;SDS011;36308;46.312;25.288;2022-07-11T14:53:54;2.97;;;0.60;;
50393;SDS011;36308;46.312;25.288;2022-07-11T14:56:20;4.57;;;0.50;;
50393;SDS011;36308;46.312;25.288;2022-07-11T14:58:45;1.17;;;0.45;;
50393;SDS011;36308;46.312;25.288;2022-07-11T15:01:11;1.65;;;0.75;;
50393;SDS011;36308;46.312;25.288;2022-07-11T15:03:36;2.60;;;0.40;;
50393;SDS011;36308;46.312;25.288;2022-07-11T15:06:09;1.38;;;0.57;;
50393;SDS011;36308;46.312;25.288;2022-07-11T15:08:35;3.80;;;0.52;;
50393;SDS011;36308;46.312;25.288;2022-07-11T15:11:20;0.50;;;0.40;;
50393;SDS011;36308;46.312;25.288;2022-07-11T15:14:04;0.98;;;0.50;;
50393;SDS011;36308;46.312;25.288;2022-07-11T15:16:31;1.90;;;0.57;;
50393;SDS011;36308;46.312;25.288;2022-07-11T15:18:57;1.00;;;0.60;;